Time;durP1;ratioP1;P1;durP2;ratioP2;P2;SDS_P1;SDS_P2;PMS_P1;PMS_P2;Temp;Humidity;BMP_temperature;BMP_pressure;BME280_temperature;BME280_humidity;BME280_pressure;Samples;Min_cycle;Max_cycle;Signal;HPM_P1;HPM_P2
2023/05/25 00:01:29;;;;;;;;;;;18.50;52.00;;;;;;5097850;28;19920;-70
2023/05/25 00:03:54;;;;;;;;;;;18.50;52.00;;;;;;5097428;28;19926;-70
2023/05/25 00:06:20;;;;;;;;;;;18.50;52.10;;;;;;5115729;28;19942;-70
2023/05/25 00:08:47;;;;;;;;;;;18.50;52.10;;;;;;5115669;28;20014;-70
2023/05/25 00:11:13;;;;;;;;;;;18.50;52.10;;;;;;5097158;28;19924;-70
2023/05/25 00:13:38;;;;;;;;;;;18.50;52.10;;;;;;5097351;28;19959;-70
2023/05/25 00:16:04;;;;;;;;;;;18.50;52.10;;;;;;5115441;28;19963;-70
2023/05/25 00:18:31;;;;;;;;;;;18.50;52.20;;;;;;5097481;28;19920;-70
2023/05/25 00:20:57;;;;;;;;;;;18.50;52.20;;;;;;5097125;28;19972;-70
2023/05/25 00:23:23;;;;;;;;;;;18.40;52.10;;;;;;5097049;28;19923;-70
2023/05/25 00:25:48;;;;;;;;;;;18.40;52.10;;;;;;5115319;28;20325;-70
2023/05/25 00:28:14;;;;;;;;;;;18.40;52.10;;;;;;5097701;28;20413;-70
2023/05/25 00:30:40;;;;;;;;;;;18.40;52.10;;;;;;5096835;28;19924;-70
2023/05/25 00:33:05;;;;;;;;;;;18.40;52.10;;;;;;5115264;28;19924;-70
2023/05/25 00:35:31;;;;;;;;;;;18.40;52.10;;;;;;5097184;28;19919;-70
2023/05/25 00:37:56;;;;;;;;;;;18.40;52.10;;;;;;5115329;28;19966;-70
2023/05/25 00:40:22;;;;;;;;;;;18.40;52.10;;;;;;5097149;28;20275;-70
2023/05/25 00:42:47;;;;;;;;;;;18.40;52.10;;;;;;5115128;28;20294;-71
2023/05/25 00:45:13;;;;;;;;;;;18.40;52.10;;;;;;5130825;27;19920;-70
2023/05/25 00:47:39;;;;;;;;;;;18.40;52.10;;;;;;5114915;28;19923;-70
2023/05/25 00:50:07;;;;;;;;;;;18.30;52.00;;;;;;5130564;27;19930;-70
2023/05/25 00:52:33;;;;;;;;;;;18.30;52.10;;;;;;5096770;28;20290;-70
2023/05/25 00:54:59;;;;;;;;;;;18.30;52.00;;;;;;5096594;28;19919;-70
2023/05/25 00:57:32;;;;;;;;;;;18.40;52.10;;;;;;5096691;28;19927;-70
2023/05/25 00:59:59;;;;;;;;;;;18.40;52.10;;;;;;5096865;28;20252;-70
2023/05/25 01:02:25;;;;;;;;;;;18.30;52.00;;;;;;5096636;28;19919;-70
2023/05/25 01:04:52;;;;;;;;;;;18.30;52.10;;;;;;5096652;28;20317;-70
2023/05/25 01:07:22;;;;;;;;;;;18.30;52.10;;;;;;5114529;28;19955;-68
2023/05/25 01:09:49;;;;;;;;;;;18.30;52.10;;;;;;5096379;28;19931;-68
2023/05/25 01:12:15;;;;;;;;;;;18.30;52.10;;;;;;5096433;28;19920;-70
2023/05/25 01:14:41;;;;;;;;;;;18.20;52.10;;;;;;5096151;28;20010;-70
2023/05/25 01:17:07;;;;;;;;;;;18.20;52.10;;;;;;5096398;28;19919;-70
2023/05/25 01:19:34;;;;;;;;;;;18.20;52.10;;;;;;5096342;28;19959;-70
2023/05/25 01:22:03;;;;;;;;;;;18.20;52.10;;;;;;5095948;28;20401;-70
2023/05/25 01:24:33;;;;;;;;;;;18.20;52.10;;;;;;5096222;28;20435;-70
2023/05/25 01:29:56;;;;;;;;;;;18.20;52.20;;;;;;5089811;28;19916;-71
2023/05/25 01:32:22;;;;;;;;;;;18.10;52.10;;;;;;5088892;28;20085;-70
2023/05/25 01:34:48;;;;;;;;;;;18.20;52.10;;;;;;5088875;28;19927;-70
2023/05/25 01:37:16;;;;;;;;;;;18.20;52.10;;;;;;5088723;28;20018;-70
2023/05/25 01:39:42;;;;;;;;;;;18.20;52.10;;;;;;5088547;28;19920;-70
2023/05/25 01:42:07;;;;;;;;;;;18.20;52.10;;;;;;5088670;28;20276;-70
2023/05/25 01:44:33;;;;;;;;;;;18.20;52.10;;;;;;5105645;28;19943;-71
2023/05/25 01:47:02;;;;;;;;;;;18.10;52.00;;;;;;5088343;28;19928;-70
2023/05/25 01:49:35;;;;;;;;;;;18.10;52.10;;;;;;5088173;28;19928;-70
2023/05/25 01:52:18;;;;;;;;;;;18.10;52.00;;;;;;5105549;28;19920;-71
2023/05/25 01:54:46;;;;;;;;;;;18.10;52.00;;;;;;5088674;28;19927;-70
2023/05/25 01:57:13;;;;;;;;;;;18.10;52.10;;;;;;5088484;28;19997;-70
2023/05/25 01:59:41;;;;;;;;;;;18.10;52.10;;;;;;5089315;28;20261;-70
2023/05/25 02:02:07;;;;;;;;;;;18.10;52.10;;;;;;5088035;28;19924;-70
2023/05/25 02:04:32;;;;;;;;;;;18.10;52.10;;;;;;5088263;28;19927;-70
2023/05/25 02:06:58;;;;;;;;;;;18.10;52.10;;;;;;5089278;28;19921;-71
2023/05/25 02:09:23;;;;;;;;;;;18.10;52.10;;;;;;5087734;28;19954;-70
2023/05/25 02:11:49;;;;;;;;;;;18.10;52.10;;;;;;5087786;28;19935;-71
2023/05/25 02:14:15;;;;;;;;;;;18.00;52.00;;;;;;5087813;28;19928;-71
2023/05/25 02:16:41;;;;;;;;;;;18.00;52.00;;;;;;5089027;28;19924;-70
2023/05/25 02:19:07;;;;;;;;;;;18.00;52.00;;;;;;5087711;28;19932;-71
2023/05/25 02:21:35;;;;;;;;;;;18.00;52.00;;;;;;5088052;28;19920;-70
2023/05/25 02:24:00;;;;;;;;;;;18.00;52.00;;;;;;5087521;28;19960;-70
2023/05/25 02:26:26;;;;;;;;;;;18.00;52.00;;;;;;5088841;28;20369;-70
2023/05/25 02:28:52;;;;;;;;;;;18.00;52.00;;;;;;5087261;28;19925;-70
2023/05/25 02:31:17;;;;;;;;;;;18.00;52.00;;;;;;5087801;28;19926;-70
2023/05/25 02:33:43;;;;;;;;;;;18.00;52.00;;;;;;5087565;28;19969;-70
2023/05/25 02:36:08;;;;;;;;;;;18.00;52.10;;;;;;5087718;28;20040;-70
2023/05/25 02:38:34;;;;;;;;;;;18.00;52.10;;;;;;5087336;28;20438;-70
2023/05/25 02:40:59;;;;;;;;;;;18.00;52.10;;;;;;5092290;28;19928;-70
2023/05/25 02:43:25;;;;;;;;;;;18.00;52.10;;;;;;5090680;28;19920;-70
2023/05/25 02:45:50;;;;;;;;;;;18.00;52.10;;;;;;5090684;28;20299;-70
2023/05/25 02:48:15;;;;;;;;;;;18.00;52.00;;;;;;5075025;28;19929;-70
2023/05/25 02:50:41;;;;;;;;;;;18.00;52.10;;;;;;5073935;28;20330;-70
2023/05/25 02:53:06;;;;;;;;;;;18.00;52.00;;;;;;5073615;28;19927;-67
2023/05/25 02:55:32;;;;;;;;;;;18.40;51.70;;;;;;5090624;28;19927;-69
2023/05/25 02:57:58;;;;;;;;;;;18.70;51.00;;;;;;5074974;28;19975;-67
2023/05/25 03:00:24;;;;;;;;;;;19.10;50.30;;;;;;5073702;28;20320;-70
2023/05/25 03:02:50;;;;;;;;;;;19.60;49.30;;;;;;5074780;28;19920;-70
2023/05/25 03:05:16;;;;;;;;;;;20.30;48.40;;;;;;5073636;28;19999;-70
2023/05/25 03:07:42;;;;;;;;;;;20.90;47.00;;;;;;5073289;28;20013;-70
2023/05/25 03:10:08;;;;;;;;;;;21.60;45.60;;;;;;5073033;28;19967;-70
2023/05/25 03:12:33;;;;;;;;;;;22.20;44.50;;;;;;5073532;28;19924;-68
2023/05/25 03:14:59;;;;;;;;;;;22.60;43.50;;;;;;5073690;28;19928;-70
2023/05/25 03:17:25;;;;;;;;;;;23.00;42.80;;;;;;5073151;28;20326;-71
2023/05/25 03:19:51;;;;;;;;;;;23.30;42.20;;;;;;5074430;28;20011;-71
2023/05/25 03:22:16;;;;;;;;;;;23.60;41.60;;;;;;5072959;28;19959;-69
2023/05/25 03:24:42;;;;;;;;;;;23.70;41.40;;;;;;5073099;28;19921;-71
2023/05/25 03:27:07;;;;;;;;;;;23.70;41.10;;;;;;5072859;28;20354;-70
2023/05/25 03:29:33;;;;;;;;;;;23.70;41.10;;;;;;5072651;28;19930;-70
2023/05/25 03:31:59;;;;;;;;;;;23.70;41.20;;;;;;5074246;28;19920;-68
2023/05/25 03:34:25;;;;;;;;;;;23.50;41.20;;;;;;5072769;28;20448;-70
2023/05/25 03:36:53;;;;;;;;;;;23.40;41.40;;;;;;5073961;28;19924;-70
2023/05/25 03:39:18;;;;;;;;;;;23.20;41.60;;;;;;5072729;28;19924;-70
2023/05/25 03:41:44;;;;;;;;;;;23.00;41.80;;;;;;5072863;28;19969;-68
2023/05/25 03:44:10;;;;;;;;;;;22.90;42.10;;;;;;5073876;28;19920;-70
2023/05/25 03:46:35;;;;;;;;;;;22.70;42.30;;;;;;5072784;28;19920;-70
2023/05/25 03:49:01;;;;;;;;;;;22.50;42.60;;;;;;5072429;28;20349;-70
2023/05/25 03:51:28;;;;;;;;;;;22.40;42.80;;;;;;5071419;28;19932;-70
2023/05/25 03:53:53;;;;;;;;;;;22.20;43.10;;;;;;5072842;28;19924;-70
2023/05/25 03:56:19;;;;;;;;;;;22.00;43.30;;;;;;5072582;28;20375;-70
2023/05/25 03:58:44;;;;;;;;;;;21.80;43.60;;;;;;5072189;28;19920;-70
2023/05/25 04:01:11;;;;;;;;;;;21.70;43.80;;;;;;5072316;28;19928;-69
2023/05/25 04:03:36;;;;;;;;;;;21.50;44.10;;;;;;5073431;28;19924;-70
2023/05/25 04:06:02;;;;;;;;;;;21.40;44.30;;;;;;5055563;28;19928;-70
2023/05/25 04:08:27;;;;;;;;;;;21.30;44.50;;;;;;5073649;28;19994;-70
2023/05/25 04:10:53;;;;;;;;;;;21.20;44.70;;;;;;5072328;28;19936;-70
2023/05/25 04:13:18;;;;;;;;;;;21.20;44.70;;;;;;5073204;28;20010;-70
2023/05/25 04:15:44;;;;;;;;;;;21.20;44.70;;;;;;5088865;28;19974;-70
2023/05/25 04:18:09;;;;;;;;;;;21.30;44.60;;;;;;5073300;28;20019;-71
2023/05/25 04:20:35;;;;;;;;;;;21.40;44.40;;;;;;5072026;28;19924;-69
2023/05/25 04:23:00;;;;;;;;;;;21.50;44.10;;;;;;5089016;28;19920;-70
2023/05/25 04:25:26;;;;;;;;;;;21.60;44.00;;;;;;5073484;28;20287;-71
2023/05/25 04:27:52;;;;;;;;;;;21.60;43.70;;;;;;5088427;28;19929;-70
2023/05/25 04:30:17;;;;;;;;;;;21.70;43.60;;;;;;5073073;28;19926;-71
2023/05/25 04:32:44;;;;;;;;;;;21.80;44.20;;;;;;5088513;28;20362;-70
2023/05/25 04:35:10;;;;;;;;;;;21.80;43.30;;;;;;5071605;28;19921;-70
2023/05/25 04:37:35;;;;;;;;;;;21.90;43.20;;;;;;5071901;28;19920;-70
2023/05/25 04:40:01;;;;;;;;;;;22.00;43.20;;;;;;5071822;28;19927;-70
2023/05/25 04:42:27;;;;;;;;;;;22.00;43.10;;;;;;5071581;28;20398;-70
2023/05/25 04:44:54;;;;;;;;;;;22.00;43.00;;;;;;5071381;28;20039;-70
2023/05/25 04:47:20;;;;;;;;;;;22.00;43.00;;;;;;5072784;28;20077;-70
2023/05/25 04:49:46;;;;;;;;;;;22.00;42.90;;;;;;5071330;28;19956;-70
2023/05/25 04:52:11;;;;;;;;;;;22.00;42.90;;;;;;5088628;28;20367;-71
2023/05/25 04:54:36;;;;;;;;;;;22.00;43.70;;;;;;5072654;28;19924;-70
2023/05/25 04:57:02;;;;;;;;;;;22.00;43.10;;;;;;5071323;28;19931;-70
2023/05/25 04:59:28;;;;;;;;;;;21.90;43.10;;;;;;5072377;28;19920;-70
2023/05/25 05:01:53;;;;;;;;;;;21.90;43.20;;;;;;5072766;28;19924;-71
2023/05/25 05:04:19;;;;;;;;;;;21.80;43.20;;;;;;5072161;28;19927;-69
2023/05/25 05:06:45;;;;;;;;;;;21.80;43.30;;;;;;5072582;28;19958;-70
2023/05/25 05:09:10;;;;;;;;;;;21.80;43.40;;;;;;5071061;28;19931;-70
2023/05/25 05:11:36;;;;;;;;;;;21.70;43.40;;;;;;5071100;28;20307;-70
2023/05/25 05:14:01;;;;;;;;;;;21.70;43.50;;;;;;5071079;28;19946;-71
2023/05/25 05:16:32;;;;;;;;;;;21.70;43.50;;;;;;5071053;28;19920;-70
2023/05/25 05:18:57;;;;;;;;;;;21.60;43.60;;;;;;5071372;28;19924;-71
2023/05/25 05:21:23;;;;;;;;;;;21.60;43.70;;;;;;5072218;28;20272;-69
2023/05/25 05:23:48;;;;;;;;;;;21.50;43.70;;;;;;5072703;28;20011;-70
2023/05/25 05:26:14;;;;;;;;;;;21.50;43.80;;;;;;5071268;28;19921;-71
2023/05/25 05:28:39;;;;;;;;;;;21.40;43.80;;;;;;5070687;28;20295;-70
2023/05/25 05:31:06;;;;;;;;;;;21.50;43.90;;;;;;5072122;28;19921;-70
2023/05/25 05:33:31;;;;;;;;;;;21.50;43.90;;;;;;5071206;28;20303;-70
2023/05/25 05:35:57;;;;;;;;;;;21.50;43.90;;;;;;5069605;28;19921;-70
2023/05/25 05:38:23;;;;;;;;;;;21.50;43.80;;;;;;5067701;28;19974;-69
2023/05/25 05:40:48;;;;;;;;;;;21.50;43.90;;;;;;5068202;28;19938;-71
2023/05/25 05:43:14;;;;;;;;;;;21.50;44.00;;;;;;5068981;28;19927;-70
2023/05/25 05:45:39;;;;;;;;;;;21.50;44.00;;;;;;5068655;28;19983;-70
2023/05/25 05:48:08;;;;;;;;;;;21.60;44.10;;;;;;5069428;28;19976;-70
2023/05/25 05:50:36;;;;;;;;;;;21.60;44.10;;;;;;5068847;28;19999;-68
2023/05/25 05:53:01;;;;;;;;;;;21.60;44.20;;;;;;5068271;28;20296;-67
2023/05/25 05:55:27;;;;;;;;;;;21.60;44.30;;;;;;5067130;28;19920;-71
2023/05/25 05:57:52;;;;;;;;;;;21.60;44.40;;;;;;5066826;28;19927;-70
2023/05/25 06:00:18;;;;;;;;;;;21.70;44.60;;;;;;5062739;28;19920;-71
2023/05/25 06:02:44;;;;;;;;;;;21.60;44.70;;;;;;5064656;28;20448;-71
2023/05/25 06:05:09;;;;;;;;;;;21.60;44.80;;;;;;5065921;28;20399;-71
2023/05/25 06:07:36;;;;;;;;;;;21.60;44.90;;;;;;5073087;28;20455;-71
2023/05/25 06:10:02;;;;;;;;;;;21.60;45.00;;;;;;5065491;28;19975;-71
2023/05/25 06:12:27;;;;;;;;;;;21.50;44.90;;;;;;5067082;28;19925;-71
2023/05/25 06:14:53;;;;;;;;;;;21.50;45.00;;;;;;5064826;28;20445;-71
2023/05/25 06:17:18;;;;;;;;;;;21.60;45.10;;;;;;5069949;28;19931;-71
2023/05/25 06:19:44;;;;;;;;;;;21.60;45.10;;;;;;5065180;28;20251;-71
2023/05/25 06:22:10;;;;;;;;;;;21.60;45.20;;;;;;5063991;28;20313;-71
2023/05/25 06:24:35;;;;;;;;;;;21.60;45.20;;;;;;5064505;28;19921;-71
2023/05/25 06:27:02;;;;;;;;;;;21.60;45.30;;;;;;5051040;28;19920;-71
2023/05/25 06:29:27;;;;;;;;;;;21.50;45.30;;;;;;5053437;28;19971;-71
2023/05/25 06:31:53;;;;;;;;;;;21.60;45.50;;;;;;5041734;28;20394;-70
2023/05/25 06:34:18;;;;;;;;;;;21.60;45.60;;;;;;5050276;28;20233;-71
2023/05/25 06:36:45;;;;;;;;;;;21.60;45.70;;;;;;5050771;28;20209;-70
2023/05/25 06:39:11;;;;;;;;;;;21.60;45.80;;;;;;5055349;28;19925;-70
2023/05/25 06:41:38;;;;;;;;;;;21.60;45.90;;;;;;5066423;28;19935;-71
2023/05/25 06:44:03;;;;;;;;;;;21.60;46.10;;;;;;5050332;28;19947;-70
2023/05/25 06:46:29;;;;;;;;;;;21.60;46.30;;;;;;5053461;28;19924;-71
2023/05/25 06:48:55;;;;;;;;;;;21.60;47.20;;;;;;5054989;28;19936;-71
2023/05/25 06:51:20;;;;;;;;;;;21.50;46.50;;;;;;5069235;28;19924;-71
2023/05/25 06:53:46;;;;;;;;;;;21.50;46.60;;;;;;5051310;28;19934;-71
2023/05/25 06:56:11;;;;;;;;;;;21.50;46.60;;;;;;5071284;28;19997;-71
2023/05/25 06:58:37;;;;;;;;;;;21.50;46.70;;;;;;5052299;28;19920;-70
2023/05/25 07:01:02;;;;;;;;;;;21.50;46.80;;;;;;5053519;28;20027;-68
2023/05/25 07:03:28;;;;;;;;;;;21.50;46.90;;;;;;5057010;28;20702;-68
2023/05/25 07:05:53;;;;;;;;;;;21.50;46.90;;;;;;5053137;28;19928;-67
2023/05/25 07:08:19;;;;;;;;;;;21.50;46.80;;;;;;5054414;28;20113;-70
2023/05/25 07:10:45;;;;;;;;;;;21.60;46.90;;;;;;5055979;28;19924;-70
2023/05/25 07:13:10;;;;;;;;;;;21.60;46.90;;;;;;5060429;28;19972;-75
2023/05/25 07:15:35;;;;;;;;;;;21.60;47.00;;;;;;5053613;28;19925;-71
2023/05/25 07:18:01;;;;;;;;;;;21.60;47.10;;;;;;5053987;28;19972;-66
2023/05/25 07:20:26;;;;;;;;;;;21.60;47.20;;;;;;5046275;28;19924;-69
2023/05/25 07:22:52;;;;;;;;;;;21.60;47.30;;;;;;5052592;28;19924;-69
2023/05/25 07:25:18;;;;;;;;;;;21.60;47.40;;;;;;5052543;28;20419;-69
2023/05/25 07:27:47;;;;;;;;;;;21.60;47.40;;;;;;5055127;28;20012;-67
2023/05/25 07:30:12;;;;;;;;;;;21.60;47.50;;;;;;5072426;28;19928;-66
2023/05/25 07:32:38;;;;;;;;;;;21.60;47.60;;;;;;5054716;28;19928;-65
2023/05/25 07:35:04;;;;;;;;;;;21.50;47.70;;;;;;5070844;28;19924;-66
2023/05/25 07:37:29;;;;;;;;;;;21.50;47.90;;;;;;5053378;28;19924;-68
2023/05/25 07:39:55;;;;;;;;;;;21.50;48.10;;;;;;5054563;28;19955;-67
2023/05/25 07:42:20;;;;;;;;;;;21.50;48.20;;;;;;5068448;28;20291;-65
2023/05/25 07:44:47;;;;;;;;;;;21.40;48.30;;;;;;5051073;28;20391;-67
2023/05/25 07:47:12;;;;;;;;;;;21.40;48.50;;;;;;5052538;28;19928;-66
2023/05/25 07:49:38;;;;;;;;;;;21.40;48.60;;;;;;5072882;28;20091;-67
2023/05/25 07:52:04;;;;;;;;;;;21.40;48.70;;;;;;5053604;28;20395;-66
2023/05/25 07:54:30;;;;;;;;;;;21.40;48.70;;;;;;5071848;28;19924;-70
2023/05/25 07:56:55;;;;;;;;;;;21.40;48.80;;;;;;5066715;28;19981;-68
2023/05/25 07:59:21;;;;;;;;;;;21.40;48.80;;;;;;5073981;28;19975;-67
2023/05/25 08:01:47;;;;;;;;;;;21.30;48.90;;;;;;5052863;28;20447;-68
2023/05/25 08:04:12;;;;;;;;;;;21.30;48.90;;;;;;5071739;28;19924;-67
2023/05/25 08:06:38;;;;;;;;;;;21.30;49.00;;;;;;5054729;28;19966;-69
2023/05/25 08:09:05;;;;;;;;;;;21.30;49.00;;;;;;5070884;28;20051;-69
2023/05/25 08:11:30;;;;;;;;;;;21.30;49.00;;;;;;5050827;28;19932;-68
2023/05/25 08:13:56;;;;;;;;;;;21.40;49.00;;;;;;5063468;28;19928;-68
2023/05/25 08:16:21;;;;;;;;;;;21.30;49.10;;;;;;5052569;28;20394;-67
2023/05/25 08:18:47;;;;;;;;;;;21.40;49.10;;;;;;5053521;28;20325;-69
2023/05/25 08:21:12;;;;;;;;;;;21.40;49.10;;;;;;5051205;28;20355;-66
2023/05/25 08:23:41;;;;;;;;;;;21.40;49.00;;;;;;5069418;28;20344;-67
2023/05/25 08:26:07;;;;;;;;;;;21.40;49.70;;;;;;5054947;28;20284;-68
2023/05/25 08:28:33;;;;;;;;;;;21.40;48.90;;;;;;5072300;28;19935;-67
2023/05/25 08:30:59;;;;;;;;;;;21.50;49.00;;;;;;5059699;28;19924;-70
2023/05/25 08:33:24;;;;;;;;;;;21.40;48.90;;;;;;5059694;28;19931;-66
2023/05/25 08:35:51;;;;;;;;;;;21.40;49.00;;;;;;5061816;28;20027;-68
2023/05/25 08:38:17;;;;;;;;;;;21.40;49.00;;;;;;5051122;28;19924;-67
2023/05/25 08:40:43;;;;;;;;;;;21.40;49.10;;;;;;5058284;28;20483;-67
2023/05/25 08:43:09;;;;;;;;;;;21.40;49.20;;;;;;5054161;28;19931;-67
2023/05/25 08:45:34;;;;;;;;;;;21.30;49.20;;;;;;5072458;28;20292;-67
2023/05/25 08:48:03;;;;;;;;;;;21.30;49.20;;;;;;5071477;28;19983;-68
2023/05/25 08:50:29;;;;;;;;;;;21.30;49.30;;;;;;5047847;28;20005;-69
2023/05/25 08:52:56;;;;;;;;;;;21.30;49.30;;;;;;5050482;28;20390;-69
2023/05/25 08:55:22;;;;;;;;;;;21.30;49.30;;;;;;5051042;28;20416;-69
2023/05/25 08:58:08;;;;;;;;;;;21.30;49.30;;;;;;5068702;28;19963;-69
2023/05/25 09:00:35;;;;;;;;;;;21.30;49.30;;;;;;5051832;28;20021;-72
2023/05/25 09:03:16;;;;;;;;;;;21.30;49.30;;;;;;5054642;28;19920;-67
2023/05/25 09:05:42;;;;;;;;;;;21.30;49.40;;;;;;5070691;28;19958;-71
2023/05/25 09:08:09;;;;;;;;;;;21.20;49.30;;;;;;5066088;28;20035;-69
2023/05/25 09:10:35;;;;;;;;;;;21.30;49.40;;;;;;5054830;28;19924;-69
2023/05/25 09:13:01;;;;;;;;;;;21.30;49.50;;;;;;5071512;28;20007;-70
2023/05/25 09:15:26;;;;;;;;;;;21.20;49.40;;;;;;5067706;28;20027;-69
2023/05/25 09:17:52;;;;;;;;;;;21.20;49.60;;;;;;5067446;28;20283;-69
2023/05/25 09:20:18;;;;;;;;;;;21.20;49.60;;;;;;5056064;28;19928;-69
2023/05/25 09:22:44;;;;;;;;;;;21.20;49.60;;;;;;5069393;28;19924;-70
2023/05/25 09:25:10;;;;;;;;;;;21.20;49.60;;;;;;5070201;28;19925;-68
2023/05/25 09:27:36;;;;;;;;;;;21.20;49.60;;;;;;5051891;28;19927;-70
2023/05/25 09:30:02;;;;;;;;;;;21.20;49.70;;;;;;5053485;28;19925;-68
2023/05/25 09:32:28;;;;;;;;;;;21.20;49.80;;;;;;5051129;28;19963;-68
2023/05/25 09:34:56;;;;;;;;;;;21.20;49.80;;;;;;5057147;28;19979;-70
2023/05/25 09:37:22;;;;;;;;;;;21.30;49.80;;;;;;5066762;28;19930;-71
2023/05/25 09:39:50;;;;;;;;;;;21.30;49.80;;;;;;5069462;28;20330;-70
2023/05/25 09:42:15;;;;;;;;;;;21.30;49.80;;;;;;5052060;28;19925;-72
2023/05/25 09:44:42;;;;;;;;;;;21.20;49.80;;;;;;5054216;28;19946;-70
2023/05/25 09:47:08;;;;;;;;;;;21.20;49.80;;;;;;5047908;28;20434;-70
2023/05/25 09:49:34;;;;;;;;;;;21.30;49.80;;;;;;5074057;28;19934;-69
2023/05/25 09:51:59;;;;;;;;;;;21.20;49.70;;;;;;5058040;28;20028;-69
2023/05/25 09:54:25;;;;;;;;;;;21.20;49.70;;;;;;5074801;28;19964;-77
2023/05/25 09:56:51;;;;;;;;;;;21.20;49.70;;;;;;5071673;28;19925;-68
2023/05/25 09:59:17;;;;;;;;;;;21.30;49.90;;;;;;5057172;28;20331;-69
2023/05/25 10:01:43;;;;;;;;;;;21.30;49.80;;;;;;5076198;28;19947;-70
2023/05/25 10:04:09;;;;;;;;;;;21.30;49.80;;;;;;5059162;28;19928;-70
2023/05/25 10:06:37;;;;;;;;;;;21.40;49.70;;;;;;5073102;28;19927;-71
2023/05/25 10:09:05;;;;;;;;;;;21.40;49.70;;;;;;5055355;28;20002;-71
2023/05/25 10:11:32;;;;;;;;;;;21.40;49.60;;;;;;5048428;28;20447;-71
2023/05/25 10:14:02;;;;;;;;;;;21.40;49.50;;;;;;5050296;28;19920;-70
2023/05/25 10:16:29;;;;;;;;;;;21.50;49.50;;;;;;5053096;28;19920;-70
2023/05/25 10:21:36;;;;;;;;;;;21.40;49.50;;;;;;5087010;27;19920;-71
2023/05/25 10:24:04;;;;;;;;;;;21.40;49.50;;;;;;5079463;28;20005;-70
2023/05/25 10:26:32;;;;;;;;;;;21.30;49.50;;;;;;5074393;28;20741;-71
2023/05/25 10:29:00;;;;;;;;;;;21.30;49.60;;;;;;5065736;28;19920;-69
2023/05/25 10:31:28;;;;;;;;;;;21.20;49.60;;;;;;5069656;28;19953;-70
2023/05/25 10:33:54;;;;;;;;;;;21.20;49.50;;;;;;5069349;28;20479;-73
2023/05/25 10:36:20;;;;;;;;;;;21.20;49.40;;;;;;5073206;28;20021;-72
2023/05/25 10:38:46;;;;;;;;;;;21.20;49.10;;;;;;5071377;28;19963;-73
2023/05/25 10:41:14;;;;;;;;;;;21.20;49.10;;;;;;5087993;28;19931;-70
2023/05/25 10:43:41;;;;;;;;;;;21.20;48.60;;;;;;5088517;28;19936;-72
2023/05/25 10:46:07;;;;;;;;;;;21.20;48.50;;;;;;5073134;28;20171;-71
2023/05/25 10:48:37;;;;;;;;;;;21.20;48.80;;;;;;5070083;28;20159;-72
2023/05/25 10:51:02;;;;;;;;;;;21.10;48.80;;;;;;5066590;28;19920;-72
2023/05/25 10:53:28;;;;;;;;;;;21.10;48.70;;;;;;5074209;28;19931;-72
2023/05/25 10:58:34;;;;;;;;;;;21.10;49.10;;;;;;5078157;27;20364;-73
2023/05/25 11:09:22;;;;;;;;;;;21.20;49.10;;;;;;5087925;27;19923;-68
2023/05/25 11:14:28;;;;;;;;;;;21.20;49.20;;;;;;5065728;28;20406;-67
2023/05/25 11:17:14;;;;;;;;;;;21.20;49.30;;;;;;5068315;28;19920;-71
2023/05/25 11:19:41;;;;;;;;;;;21.20;49.30;;;;;;5069206;28;19928;-69
2023/05/25 11:22:12;;;;;;;;;;;21.20;49.30;;;;;;5080306;28;19934;-68
2023/05/25 11:24:37;;;;;;;;;;;21.30;49.50;;;;;;5083734;28;20020;-69
2023/05/25 11:27:04;;;;;;;;;;;21.30;49.50;;;;;;5065951;28;20362;-66
2023/05/25 11:29:35;;;;;;;;;;;21.30;49.40;;;;;;5067960;28;19924;-70
2023/05/25 11:32:01;;;;;;;;;;;21.30;49.50;;;;;;5070556;28;20028;-67
2023/05/25 11:34:27;;;;;;;;;;;21.30;49.60;;;;;;5066350;28;19967;-68
2023/05/25 11:37:00;;;;;;;;;;;21.30;49.70;;;;;;5069467;28;19924;-65
2023/05/25 11:39:26;;;;;;;;;;;21.20;49.80;;;;;;5065014;28;19916;-69
2023/05/25 11:41:54;;;;;;;;;;;21.20;50.00;;;;;;5066191;28;19928;-68
2023/05/25 11:44:28;;;;;;;;;;;21.20;50.10;;;;;;5063671;28;20003;-66
2023/05/25 11:46:56;;;;;;;;;;;21.20;50.30;;;;;;5059230;28;19921;-68
2023/05/25 11:49:22;;;;;;;;;;;21.10;50.40;;;;;;5060165;28;19921;-67
2023/05/25 11:51:47;;;;;;;;;;;21.10;50.50;;;;;;5056370;28;19931;-67
2023/05/25 11:54:20;;;;;;;;;;;21.10;50.50;;;;;;5058403;28;19947;-67
2023/05/25 11:56:45;;;;;;;;;;;21.00;50.50;;;;;;5075610;28;19943;-67
2023/05/25 11:59:11;;;;;;;;;;;21.00;50.60;;;;;;5061924;28;21537;-67
2023/05/25 12:01:36;;;;;;;;;;;21.00;50.70;;;;;;5064770;28;19917;-67
2023/05/25 12:04:07;;;;;;;;;;;21.00;50.60;;;;;;5067970;28;20006;-66
2023/05/25 12:06:33;;;;;;;;;;;21.00;50.70;;;;;;5070281;28;19979;-67
2023/05/25 12:09:00;;;;;;;;;;;21.00;50.60;;;;;;5069801;28;20280;-68
2023/05/25 12:11:30;;;;;;;;;;;21.00;50.80;;;;;;5067572;28;19994;-68
2023/05/25 12:13:56;;;;;;;;;;;21.10;50.50;;;;;;5079993;28;19933;-68
2023/05/25 12:16:22;;;;;;;;;;;21.10;50.40;;;;;;5082733;28;19985;-68
2023/05/25 12:18:48;;;;;;;;;;;21.10;50.20;;;;;;5065776;28;20419;-68
2023/05/25 12:21:13;;;;;;;;;;;21.20;50.10;;;;;;5066221;28;19928;-68
2023/05/25 12:23:39;;;;;;;;;;;21.10;50.10;;;;;;5066595;28;19979;-68
2023/05/25 12:26:08;;;;;;;;;;;21.10;50.20;;;;;;5053338;28;19927;-68
2023/05/25 12:28:34;;;;;;;;;;;21.20;50.20;;;;;;5054737;28;20266;-69
2023/05/25 12:31:18;;;;;;;;;;;21.20;50.10;;;;;;5053633;28;20519;-66
2023/05/25 12:33:43;;;;;;;;;;;21.20;49.90;;;;;;5052580;28;19935;-67
2023/05/25 12:36:09;;;;;;;;;;;21.20;49.60;;;;;;5053638;28;20624;-68
2023/05/25 12:38:34;;;;;;;;;;;21.20;49.80;;;;;;5048548;28;19929;-67
2023/05/25 12:41:04;;;;;;;;;;;21.20;49.90;;;;;;5052330;28;19955;-67
2023/05/25 12:43:37;;;;;;;;;;;21.20;49.80;;;;;;5054070;28;20015;-68
2023/05/25 12:46:03;;;;;;;;;;;21.30;49.90;;;;;;5049027;28;19928;-66
2023/05/25 12:48:28;;;;;;;;;;;21.30;49.90;;;;;;5066299;28;19927;-68
2023/05/25 12:50:55;;;;;;;;;;;21.30;49.90;;;;;;5049339;28;19920;-66
2023/05/25 12:53:21;;;;;;;;;;;21.30;49.80;;;;;;5049980;28;19936;-72
2023/05/25 12:55:46;;;;;;;;;;;21.30;49.80;;;;;;5067583;28;20396;-66
2023/05/25 12:58:26;;;;;;;;;;;21.30;49.80;;;;;;5049909;28;20079;-65
2023/05/25 13:00:51;;;;;;;;;;;21.30;49.80;;;;;;5052509;28;19920;-66
2023/05/25 13:03:17;;;;;;;;;;;21.30;49.60;;;;;;5053976;28;19938;-66
2023/05/25 13:05:43;;;;;;;;;;;21.30;49.60;;;;;;5076045;28;19920;-66
2023/05/25 13:08:08;;;;;;;;;;;21.30;49.60;;;;;;5056861;28;19924;-67
2023/05/25 13:10:35;;;;;;;;;;;21.30;49.30;;;;;;5057895;28;20689;-67
2023/05/25 13:13:01;;;;;;;;;;;21.30;49.20;;;;;;5054814;28;19931;-66
2023/05/25 13:15:26;;;;;;;;;;;21.30;49.10;;;;;;5056909;28;19921;-67
2023/05/25 13:17:54;;;;;;;;;;;21.30;48.90;;;;;;5071211;28;19972;-70
2023/05/25 13:20:21;;;;;;;;;;;21.30;49.00;;;;;;5067654;28;19935;-67
2023/05/25 13:22:48;;;;;;;;;;;21.30;49.30;;;;;;5066092;28;20373;-68
2023/05/25 13:25:13;;;;;;;;;;;21.30;49.10;;;;;;5067495;28;19989;-68
2023/05/25 13:27:43;;;;;;;;;;;21.30;49.60;;;;;;5068410;28;19956;-70
2023/05/25 13:30:10;;;;;;;;;;;21.30;48.70;;;;;;5067371;28;19921;-70
2023/05/25 13:32:36;;;;;;;;;;;21.30;48.80;;;;;;5067183;28;19931;-69
2023/05/25 13:35:03;;;;;;;;;;;21.20;48.80;;;;;;5051056;28;19924;-69
2023/05/25 13:37:29;;;;;;;;;;;21.20;48.90;;;;;;5048705;28;19928;-69
2023/05/25 13:39:55;;;;;;;;;;;21.20;49.10;;;;;;5063340;28;19924;-69
2023/05/25 13:42:20;;;;;;;;;;;21.20;49.10;;;;;;5049663;28;20334;-70
2023/05/25 13:44:46;;;;;;;;;;;21.20;48.70;;;;;;5051650;28;19924;-70
2023/05/25 13:47:12;;;;;;;;;;;21.10;48.70;;;;;;5055106;28;19943;-70
2023/05/25 13:49:37;;;;;;;;;;;21.10;48.70;;;;;;5052407;28;20347;-70
2023/05/25 13:52:03;;;;;;;;;;;21.10;48.70;;;;;;5058583;28;19925;-70
2023/05/25 13:54:28;;;;;;;;;;;21.10;48.80;;;;;;5071285;28;20291;-70
2023/05/25 13:56:53;;;;;;;;;;;21.10;48.70;;;;;;5059638;28;19920;-70
2023/05/25 13:59:19;;;;;;;;;;;21.10;48.90;;;;;;5055642;28;20501;-70
2023/05/25 14:01:45;;;;;;;;;;;21.10;48.90;;;;;;5053140;28;19925;-69
2023/05/25 14:04:13;;;;;;;;;;;21.00;48.90;;;;;;5064502;28;20011;-70
2023/05/25 14:06:39;;;;;;;;;;;21.10;49.00;;;;;;5057672;28;19924;-66
2023/05/25 14:09:04;;;;;;;;;;;21.00;49.10;;;;;;5052290;28;21090;-64
2023/05/25 14:11:30;;;;;;;;;;;21.00;48.80;;;;;;5055441;28;20343;-69
2023/05/25 14:13:55;;;;;;;;;;;21.00;48.40;;;;;;5068681;28;19928;-69
2023/05/25 14:16:21;;;;;;;;;;;21.10;48.20;;;;;;5053939;28;20341;-68
2023/05/25 14:18:47;;;;;;;;;;;21.10;48.20;;;;;;5055549;28;19931;-68
2023/05/25 14:21:12;;;;;;;;;;;21.10;48.30;;;;;;5075627;28;19920;-69
2023/05/25 14:23:38;;;;;;;;;;;21.10;48.40;;;;;;5064964;28;20368;-69
2023/05/25 14:26:03;;;;;;;;;;;21.10;48.60;;;;;;5075527;28;19974;-71
2023/05/25 14:28:29;;;;;;;;;;;21.10;48.60;;;;;;5073372;28;19977;-69
2023/05/25 14:30:54;;;;;;;;;;;21.10;48.60;;;;;;5073292;28;20023;-69